Tabellarische Übersicht vom Dienstag, den 20.08.2019

Oder anderes Datum wählen:






max 16,4°C 86,0% 12,2°C 1020,4hPa 16,0°C 0,0km/h (0Bft) 0,0km/h 0° (N) ∑0,1l/m² 0,000klx ∑0,0min
min 13,3°C 75,0% 10,7°C 1019,0hPa 13,0°C 0,0km/h (0Bft) 0,0km/h 0° (N) ∑0,1l/m² 0,000klx ∑0,0min
Ø 15,0°C 80,0% 11,6°C 1019,8hPa 15,0°C 0,0km/h (0Bft) 0,0km/h 0° (N) ∑0,1l/m² 0,000klx ∑0,0min
Zeit Temperatur Luftfeuchte Taupunkt Luftdruck Windchill Windböen Windgeschwindigkeit Windrichtung Regen Helligkeit Regenzeit
05:05 13,6°C 82,4% 10,7°C 1020,4hPa 13,6°C 0,0km/h (0Bft) 0,0km/h 0,0l/m² 0,000klx 0,0min
05:00 13,7°C 82,0% 10,7°C 1020,4hPa 13,7°C 0,0km/h (0Bft) 0,0km/h 0,0l/m² 0,000klx 0,0min
04:55 13,6°C 82,9% 10,7°C 1020,4hPa 13,6°C 0,0km/h (0Bft) 0,0km/h 0,0l/m² 0,000klx 0,0min
04:50 13,5°C 84,2% 10,9°C 1020,4hPa 13,5°C 0,0km/h (0Bft) 0,0km/h 0,0l/m² 0,000klx 0,0min
04:45 13,3°C 85,4% 10,9°C 1020,3hPa 13,3°C 0,0km/h (0Bft) 0,0km/h 0,0l/m² 0,000klx 0,0min
04:40 13,3°C 85,9% 11,0°C 1020,3hPa 13,3°C 0,0km/h (0Bft) 0,0km/h 0,0l/m² 0,000klx 0,0min
04:35 13,6°C 84,4% 11,0°C 1020,3hPa 13,6°C 0,0km/h (0Bft) 0,0km/h 0,0l/m² 0,000klx 0,0min
04:30 13,7°C 83,8% 11,0°C 1020,2hPa 13,7°C 0,0km/h (0Bft) 0,0km/h 0,0l/m² 0,000klx 0,0min
04:25 13,8°C 83,2% 11,0°C 1020,2hPa 13,8°C 0,0km/h (0Bft) 0,0km/h 0,0l/m² 0,000klx 0,0min
04:20 13,9°C 82,5% 11,0°C 1020,1hPa 13,9°C 0,0km/h (0Bft) 0,0km/h 0,0l/m² 0,000klx 0,0min
04:15 13,6°C 84,1% 11,0°C 1020,1hPa 13,6°C 0,0km/h (0Bft) 0,0km/h 0,0l/m² 0,000klx 0,0min
04:10 13,9°C 82,7% 11,0°C 1020,1hPa 13,9°C 0,0km/h (0Bft) 0,0km/h 0,0l/m² 0,000klx 0,0min
04:05 14,0°C 82,7% 11,1°C 1020,1hPa 14,0°C 0,0km/h (0Bft) 0,0km/h 0,0l/m² 0,000klx 0,0min
04:00 14,1°C 82,5% 11,2°C 1020,1hPa 14,1°C 0,0km/h (0Bft) 0,0km/h 0,0l/m² 0,000klx 0,0min
03:55 14,3°C 81,5% 11,2°C 1020,1hPa 14,3°C 0,0km/h (0Bft) 0,0km/h 0,0l/m² 0,000klx 0,0min
03:50 14,5°C 80,9% 11,2°C 1020,1hPa 14,5°C 0,0km/h (0Bft) 0,0km/h 0,0l/m² 0,000klx 0,0min
03:45 14,5°C 80,7% 11,2°C 1020,0hPa 14,5°C 0,0km/h (0Bft) 0,0km/h 0,0l/m² 0,000klx 0,0min
03:40 14,4°C 81,1% 11,2°C 1020,0hPa 14,4°C 0,0km/h (0Bft) 0,0km/h 0,0l/m² 0,000klx 0,0min
03:35 14,5°C 81,1% 11,3°C 1020,0hPa 14,5°C 0,0km/h (0Bft) 0,0km/h 0,0l/m² 0,000klx 0,0min
03:30 14,6°C 80,6% 11,3°C 1020,0hPa 14,6°C 0,0km/h (0Bft) 0,0km/h 0,0l/m² 0,000klx 0,0min
03:25 14,6°C 80,7% 11,3°C 1020,0hPa 14,6°C 0,0km/h (0Bft) 0,0km/h 0,0l/m² 0,000klx 0,0min
03:20 14,4°C 82,3% 11,4°C 1019,9hPa 14,4°C 0,0km/h (0Bft) 0,0km/h 0,0l/m² 0,000klx 0,0min
03:15 14,7°C 80,6% 11,4°C 1019,9hPa 14,7°C 0,0km/h (0Bft) 0,0km/h 0,0l/m² 0,000klx 0,0min
03:10 14,8°C 79,6% 11,3°C 1019,8hPa 14,8°C 0,0km/h (0Bft) 0,0km/h 0,0l/m² 0,000klx 0,0min
03:05 14,9°C 79,8% 11,4°C 1019,8hPa 14,9°C 0,0km/h (0Bft) 0,0km/h 0,0l/m² 0,000klx 0,0min
03:00 14,9°C 80,3% 11,5°C 1019,8hPa 14,9°C 0,0km/h (0Bft) 0,0km/h 0,0l/m² 0,000klx 0,0min
02:55 14,9°C 80,7% 11,7°C 1019,9hPa 14,9°C 0,0km/h (0Bft) 0,0km/h 0,0l/m² 0,000klx 0,0min
02:50 14,9°C 81,0% 11,6°C 1019,9hPa 14,9°C 0,0km/h (0Bft) 0,0km/h 0,0l/m² 0,000klx 0,0min
02:45 15,0°C 79,5% 11,5°C 1019,9hPa 15,0°C 0,0km/h (0Bft) 0,0km/h 0,0l/m² 0,000klx 0,0min
02:40 15,1°C 79,6% 11,6°C 1019,9hPa 15,1°C 0,0km/h (0Bft) 0,0km/h 0,0l/m² 0,000klx 0,0min
02:35 15,3°C 78,6% 11,6°C 1019,9hPa 15,3°C 0,0km/h (0Bft) 0,0km/h 0,0l/m² 0,000klx 0,0min
02:30 15,6°C 77,0% 11,6°C 1019,9hPa 15,6°C 0,0km/h (0Bft) 0,0km/h 0,0l/m² 0,000klx 0,0min
02:25 15,5°C 77,6% 11,6°C 1019,8hPa 15,5°C 0,0km/h (0Bft) 0,0km/h 0,0l/m² 0,000klx 0,0min
02:20 15,4°C 79,2% 11,8°C 1019,8hPa 15,4°C 0,0km/h (0Bft) 0,0km/h 0,0l/m² 0,000klx 0,0min
02:15 15,5°C 78,1% 11,7°C 1019,8hPa 15,5°C 0,0km/h (0Bft) 0,0km/h 0,0l/m² 0,000klx 0,0min
02:10 15,6°C 78,7% 11,9°C 1019,9hPa 15,6°C 0,0km/h (0Bft) 0,0km/h 0,0l/m² 0,000klx 0,0min
02:05 15,8°C 77,5% 11,9°C 1019,9hPa 15,8°C 0,0km/h (0Bft) 0,0km/h 0,0l/m² 0,000klx 0,0min
02:00 15,7°C 78,5% 11,9°C 1019,8hPa 15,7°C 0,0km/h (0Bft) 0,0km/h 0,0l/m² 0,000klx 0,0min
01:55 15,8°C 78,3% 12,0°C 1019,8hPa 15,8°C 0,0km/h (0Bft) 0,0km/h 0,0l/m² 0,000klx 0,0min
01:50 15,6°C 79,4% 12,1°C 1019,8hPa 15,6°C 0,0km/h (0Bft) 0,0km/h 0,0l/m² 0,000klx 0,0min
01:45 15,8°C 77,9% 12,0°C 1019,7hPa 15,8°C 0,0km/h (0Bft) 0,0km/h 0,0l/m² 0,000klx 0,0min
01:40 15,8°C 78,1% 11,9°C 1019,7hPa 15,8°C 0,0km/h (0Bft) 0,0km/h 0,0l/m² 0,000klx 0,0min
01:35 15,9°C 77,0% 11,9°C 1019,6hPa 15,9°C 0,0km/h (0Bft) 0,0km/h 0,0l/m² 0,000klx 0,0min
01:30 15,7°C 78,4% 11,9°C 1019,6hPa 15,7°C 0,0km/h (0Bft) 0,0km/h 0,0l/m² 0,000klx 0,0min
01:25 15,6°C 79,5% 12,0°C 1019,6hPa 15,6°C 0,0km/h (0Bft) 0,0km/h 0,0l/m² 0,000klx 0,0min
01:20 16,0°C 76,0% 11,8°C 1019,6hPa 16,0°C 0,0km/h (0Bft) 0,0km/h 0,0l/m² 0,000klx 0,0min
01:15 15,8°C 76,7% 11,7°C 1019,5hPa 15,8°C 0,0km/h (0Bft) 0,0km/h 0,0l/m² 0,000klx 0,0min
01:10 15,5°C 79,0% 11,9°C 1019,5hPa 15,5°C 0,0km/h (0Bft) 0,0km/h 0,0l/m² 0,000klx 0,0min
01:05 15,3°C 81,8% 12,2°C 1019,4hPa 15,3°C 0,0km/h (0Bft) 0,0km/h 0,0l/m² 0,000klx 0,0min
01:00 15,3°C 81,7% 12,1°C 1019,4hPa 15,3°C 0,0km/h (0Bft) 0,0km/h 0,0l/m² 0,000klx 0,0min
00:55 15,4°C 80,3% 12,0°C 1019,4hPa 15,4°C 0,0km/h (0Bft) 0,0km/h 0,0l/m² 0,000klx 0,0min
00:50 15,5°C 79,4% 12,0°C 1019,3hPa 15,5°C 0,0km/h (0Bft) 0,0km/h 0,0l/m² 0,000klx 0,0min
00:45 15,7°C 78,5% 11,9°C 1019,3hPa 15,7°C 0,0km/h (0Bft) 0,0km/h 0,0l/m² 0,000klx 0,0min
00:40 15,9°C 77,9% 12,0°C 1019,2hPa 15,9°C 0,0km/h (0Bft) 0,0km/h 0,0l/m² 0,000klx 0,0min
00:35 16,0°C 77,3% 12,0°C 1019,1hPa 16,0°C 0,0km/h (0Bft) 0,0km/h 0,0l/m² 0,000klx 0,0min
00:30 16,1°C 76,5% 12,0°C 1019,1hPa 16,1°C 0,0km/h (0Bft) 0,0km/h 0,0l/m² 0,000klx 0,0min
00:25 16,3°C 76,2% 12,1°C 1019,1hPa 16,3°C 0,0km/h (0Bft) 0,0km/h 0,0l/m² 0,000klx 0,0min
00:20 16,4°C 75,0% 11,9°C 1019,0hPa 16,4°C 0,0km/h (0Bft) 0,0km/h 0,0l/m² 0,000klx 0,0min
00:15 16,2°C 76,2% 12,0°C 1019,0hPa 16,2°C 0,0km/h (0Bft) 0,0km/h 0,0l/m² 0,000klx 0,0min
00:10 16,1°C 77,1% 12,1°C 1019,0hPa 16,1°C 0,0km/h (0Bft) 0,0km/h 0,0l/m² 0,000klx 0,0min
00:05 16,2°C 76,1% 12,0°C 1019,0hPa 16,2°C 0,0km/h (0Bft) 0,0km/h 0,0l/m² 0,000klx 0,0min
00:00 16,2°C 76,2% 12,0°C 1019,0hPa 16,2°C 0,0km/h (0Bft) 0,0km/h 0,0l/m² 0,000klx 0,0min

Aktuelle Wetterdaten

20.08.2019 05:05 Uhr